Time;durP1;ratioP1;P1;durP2;ratioP2;P2;SDS_P1;SDS_P2;PMS_P1;PMS_P2;Temp;Humidity;BMP_temperature;BMP_pressure;BME280_temperature;BME280_humidity;BME280_pressure;Samples;Min_cycle;Max_cycle;Signal;HPM_P1;HPM_P2
2024/03/19 00:02:39;;;;;;;;;;;;;;;20.56;47.31;95777.38;10460209;28;2805;-67
2024/03/19 00:07:39;;;;;;;;;;;;;;;20.56;47.50;95782.66;10461049;28;2993;-67
2024/03/19 00:12:39;;;;;;;;;;;;;;;20.54;46.73;95787.41;10459873;28;2742;-67
2024/03/19 00:17:39;;;;;;;;;;;;;;;20.53;46.38;95785.81;10459966;28;2818;-67
2024/03/19 00:22:40;;;;;;;;;;;;;;;20.51;48.24;95782.66;10466018;28;2855;-67
2024/03/19 00:27:40;;;;;;;;;;;;;;;20.50;47.78;95785.56;10491167;28;2746;-67
2024/03/19 00:32:41;;;;;;;;;;;;;;;20.49;46.86;95781.34;10462157;28;2736;-66
2024/03/19 00:37:42;;;;;;;;;;;;;;;20.47;46.11;95781.63;10462883;28;2744;-67
2024/03/19 00:42:43;;;;;;;;;;;;;;;20.46;46.26;95781.91;10460907;28;2794;-67
2024/03/19 00:47:43;;;;;;;;;;;;;;;20.44;45.74;95776.13;10461760;28;2874;-65
2024/03/19 00:52:43;;;;;;;;;;;;;;;20.42;46.19;95776.41;10463021;28;2695;-67
2024/03/19 00:57:44;;;;;;;;;;;;;;;20.41;45.82;95782.72;10443681;28;2952;-67
2024/03/19 01:02:44;;;;;;;;;;;;;;;20.40;46.47;95785.63;10458280;28;2908;-67
2024/03/19 01:07:45;;;;;;;;;;;;;;;20.38;46.80;95777.97;10463393;28;2811;-67
2024/03/19 01:12:46;;;;;;;;;;;;;;;20.35;47.25;95778.53;10459659;28;2798;-67
2024/03/19 01:17:46;;;;;;;;;;;;;;;20.34;47.21;95776.94;10458315;28;2829;-68
2024/03/19 01:22:47;;;;;;;;;;;;;;;20.34;47.31;95778.81;10459759;28;2717;-67
2024/03/19 01:27:49;;;;;;;;;;;;;;;20.33;45.37;95767.50;10455987;28;2793;-69
2024/03/19 01:32:49;;;;;;;;;;;;;;;20.32;45.49;95767.78;10442056;28;2788;-68
2024/03/19 01:37:50;;;;;;;;;;;;;;;20.32;45.26;95770.41;10454686;28;2800;-69
2024/03/19 01:42:50;;;;;;;;;;;;;;;20.30;46.55;95775.91;10456969;28;2803;-70
2024/03/19 01:47:51;;;;;;;;;;;;;;;20.29;45.37;95771.72;10456975;28;2720;-69
2024/03/19 01:52:54;;;;;;;;;;;;;;;20.28;44.44;95762.25;10465011;28;2773;-69
2024/03/19 01:57:59;;;;;;;;;;;;;;;20.26;46.33;95759.88;10458913;28;2796;-69
2024/03/19 02:02:59;;;;;;;;;;;;;;;20.26;46.69;95751.19;10453990;28;2720;-70
2024/03/19 02:07:59;;;;;;;;;;;;;;;20.25;46.07;95752.28;10436160;28;2782;-69
2024/03/19 02:13:00;;;;;;;;;;;;;;;20.21;45.63;95752.03;10454883;28;2767;-70
2024/03/19 02:18:00;;;;;;;;;;;;;;;20.22;44.52;95755.44;10452693;28;2803;-70
2024/03/19 02:23:01;;;;;;;;;;;;;;;20.22;44.30;95750.16;10453624;28;2809;-69
2024/03/19 02:28:03;;;;;;;;;;;;;;;20.21;45.17;95762.56;10454134;28;2877;-69
2024/03/19 02:33:03;;;;;;;;;;;;;;;20.20;45.09;95754.91;10456281;28;2799;-69
2024/03/19 02:38:04;;;;;;;;;;;;;;;20.21;43.88;95761.75;10474930;28;2865;-69
2024/03/19 02:43:04;;;;;;;;;;;;;;;20.18;44.10;95757.00;10452048;28;2861;-69
2024/03/19 02:48:05;;;;;;;;;;;;;;;20.17;45.21;95753.56;10457740;28;2870;-68
2024/03/19 02:53:05;;;;;;;;;;;;;;;20.16;44.65;95754.63;10458912;28;2806;-69
2024/03/19 02:58:06;;;;;;;;;;;;;;;20.15;43.68;95758.31;10469847;28;2845;-69
2024/03/19 03:03:06;;;;;;;;;;;;;;;20.15;44.64;95762.81;10455564;28;2790;-69
2024/03/19 03:08:06;;;;;;;;;;;;;;;20.14;44.18;95761.22;10457695;28;2870;-69
2024/03/19 03:13:07;;;;;;;;;;;;;;;20.12;43.96;95768.59;10454466;28;2829;-69
2024/03/19 03:18:07;;;;;;;;;;;;;;;20.11;44.37;95769.69;10445053;28;2816;-69
2024/03/19 03:23:07;;;;;;;;;;;;;;;20.11;44.26;95772.31;10455593;28;2957;-69
2024/03/19 03:28:08;;;;;;;;;;;;;;;20.10;44.19;95783.88;10456406;28;2830;-68
2024/03/19 03:33:08;;;;;;;;;;;;;;;20.10;44.48;95773.34;10487994;28;2914;-68
2024/03/19 03:38:09;;;;;;;;;;;;;;;20.08;44.41;95775.47;10454965;28;2837;-69
2024/03/19 03:43:09;;;;;;;;;;;;;;;20.07;43.81;95773.91;10460074;28;2725;-68
2024/03/19 03:48:10;;;;;;;;;;;;;;;20.06;44.27;95783.63;10462972;28;2794;-68
2024/03/19 03:53:10;;;;;;;;;;;;;;;20.05;44.33;95789.19;10463774;28;2629;-68
2024/03/19 03:58:13;;;;;;;;;;;;;;;20.04;44.14;95792.84;10462084;28;2820;-69
2024/03/19 04:03:14;;;;;;;;;;;;;;;20.05;43.81;95791.81;10459878;28;2725;-68
2024/03/19 04:08:14;;;;;;;;;;;;;;;20.03;44.44;95786.03;10460756;28;2837;-68
2024/03/19 04:13:15;;;;;;;;;;;;;;;20.02;43.62;95781.81;10458900;28;2637;-68
2024/03/19 04:18:15;;;;;;;;;;;;;;;20.01;43.86;95783.63;10458972;28;2754;-69
2024/03/19 04:23:16;;;;;;;;;;;;;;;20.01;44.25;95793.41;10460894;28;2827;-68
2024/03/19 04:28:16;;;;;;;;;;;;;;;19.99;44.02;95790.25;10463497;28;2704;-68
2024/03/19 04:33:16;;;;;;;;;;;;;;;19.99;43.97;95791.00;10447550;28;2816;-68
2024/03/19 04:38:17;;;;;;;;;;;;;;;19.98;43.22;95794.72;10450928;28;2865;-68
2024/03/19 04:43:17;;;;;;;;;;;;;;;19.97;44.17;95795.00;10477636;28;2850;-68
2024/03/19 04:48:17;;;;;;;;;;;;;;;19.96;43.75;95801.28;10458304;28;2858;-68
2024/03/19 04:53:18;;;;;;;;;;;;;;;19.95;43.87;95800.50;10466778;28;2799;-68
2024/03/19 04:58:18;;;;;;;;;;;;;;;19.95;43.95;95805.75;10459150;28;2967;-68
2024/03/19 05:03:18;;;;;;;;;;;;;;;19.94;43.38;95792.88;10461121;28;2826;-68
2024/03/19 05:08:19;;;;;;;;;;;;;;;19.94;45.52;95792.88;10459952;28;2870;-68
2024/03/19 05:13:19;;;;;;;;;;;;;;;19.98;47.25;95797.34;10460500;28;2796;-68
2024/03/19 05:18:19;;;;;;;;;;;;;;;20.02;47.79;95801.03;10460825;28;2801;-68
2024/03/19 05:23:19;;;;;;;;;;;;;;;20.07;47.35;95792.31;10458733;28;2857;-69
2024/03/19 05:28:20;;;;;;;;;;;;;;;20.11;48.82;95799.38;10451189;28;2914;-68
2024/03/19 05:33:20;;;;;;;;;;;;;;;20.15;47.53;95794.41;10462227;28;2783;-68
2024/03/19 05:38:23;;;;;;;;;;;;;;;20.19;47.50;95795.44;10457603;28;2824;-68
2024/03/19 05:43:24;;;;;;;;;;;;;;;20.26;47.59;95801.22;10455599;28;2790;-67
2024/03/19 05:48:24;;;;;;;;;;;;;;;20.28;48.02;95797.25;10459371;28;2769;-68
2024/03/19 05:53:24;;;;;;;;;;;;;;;20.33;47.77;95796.44;10457599;28;2899;-68
2024/03/19 05:58:25;;;;;;;;;;;;;;;20.38;47.35;95801.66;10457983;28;2838;-65
2024/03/19 06:03:25;;;;;;;;;;;;;;;20.45;47.90;95810.06;10456580;28;2696;-68
2024/03/19 06:08:26;;;;;;;;;;;;;;;20.48;48.08;95814.81;10455636;28;2783;-69
2024/03/19 06:13:27;;;;;;;;;;;;;;;20.58;48.32;95825.28;10455396;28;2728;-70
2024/03/19 06:18:27;;;;;;;;;;;;;;;20.58;48.24;95824.50;10437240;28;2725;-67
2024/03/19 06:23:27;;;;;;;;;;;;;;;20.63;48.50;95825.25;10455232;28;2774;-67
2024/03/19 06:28:28;;;;;;;;;;;;;;;20.64;46.76;95828.69;10458235;28;3024;-66
2024/03/19 06:33:28;;;;;;;;;;;;;;;20.64;46.95;95833.94;10456773;28;2774;-70
2024/03/19 06:38:28;;;;;;;;;;;;;;;20.66;47.39;95837.91;10455815;28;2849;-70
2024/03/19 06:43:29;;;;;;;;;;;;;;;20.71;46.82;95839.72;10473016;28;2760;-69
2024/03/19 06:48:30;;;;;;;;;;;;;;;20.72;46.51;95838.63;10454923;28;2782;-70
2024/03/19 06:53:30;;;;;;;;;;;;;;;20.75;46.79;95838.88;10480574;28;2686;-70
2024/03/19 06:58:31;;;;;;;;;;;;;;;20.79;46.85;95844.41;10486732;28;2789;-69
2024/03/19 07:03:31;;;;;;;;;;;;;;;20.84;46.10;95850.44;10451235;28;2743;-70
2024/03/19 07:08:32;;;;;;;;;;;;;;;20.85;46.40;95862.56;10460677;28;2803;-70
2024/03/19 07:13:32;;;;;;;;;;;;;;;20.89;46.14;95860.94;10489344;28;2864;-70
2024/03/19 07:18:32;;;;;;;;;;;;;;;20.91;45.74;95864.09;10443395;28;2785;-72
2024/03/19 07:23:33;;;;;;;;;;;;;;;20.95;45.67;95859.84;10463103;28;2809;-70
2024/03/19 07:28:33;;;;;;;;;;;;;;;20.95;45.09;95872.25;10463581;28;2810;-71
2024/03/19 07:33:33;;;;;;;;;;;;;;;21.01;45.37;95869.31;10466302;28;2862;-71
2024/03/19 07:38:33;;;;;;;;;;;;;;;21.02;45.04;95876.16;10444064;28;2784;-70
2024/03/19 07:43:34;;;;;;;;;;;;;;;20.98;45.33;95883.03;10462068;28;2652;-72
2024/03/19 07:48:34;;;;;;;;;;;;;;;20.99;44.22;95876.69;10462740;28;2768;-70
2024/03/19 07:53:35;;;;;;;;;;;;;;;21.05;44.54;95880.91;10460892;28;2776;-70
2024/03/19 07:58:35;;;;;;;;;;;;;;;21.02;44.53;95881.44;10442248;28;2747;-70
2024/03/19 08:03:36;;;;;;;;;;;;;;;21.08;44.82;95880.34;10459220;28;2623;-68
2024/03/19 08:08:36;;;;;;;;;;;;;;;21.04;44.54;95883.81;10459504;28;2778;-68
2024/03/19 08:13:36;;;;;;;;;;;;;;;21.02;45.77;95889.34;10447912;28;2850;-71
2024/03/19 08:18:37;;;;;;;;;;;;;;;21.05;44.81;95891.44;10461187;28;2821;-70
2024/03/19 08:23:37;;;;;;;;;;;;;;;21.06;44.60;95893.00;10478397;28;2823;-70
2024/03/19 08:28:37;;;;;;;;;;;;;;;21.05;44.72;95896.72;10458834;28;2846;-71
2024/03/19 08:33:38;;;;;;;;;;;;;;;21.05;44.97;95896.72;10459334;28;2973;-71
2024/03/19 08:38:40;;;;;;;;;;;;;;;21.08;44.38;95898.81;10459172;28;2853;-70
2024/03/19 08:43:45;;;;;;;;;;;;;;;21.07;44.10;95901.72;10476693;28;2657;-70
2024/03/19 08:48:46;;;;;;;;;;;;;;;21.11;44.06;95907.22;10460362;28;2807;-70
2024/03/19 08:53:47;;;;;;;;;;;;;;;21.10;44.09;95905.66;10464189;28;2830;-70
2024/03/19 08:58:48;;;;;;;;;;;;;;;21.08;43.69;95907.78;10456463;28;2823;-70
2024/03/19 09:03:48;;;;;;;;;;;;;;;21.04;44.92;95907.53;10460640;28;2732;-70
2024/03/19 09:08:48;;;;;;;;;;;;;;;21.09;43.52;95907.50;10458377;28;2808;-70
2024/03/19 09:13:48;;;;;;;;;;;;;;;20.98;44.64;95917.28;10456560;28;2970;-70
2024/03/19 09:18:49;;;;;;;;;;;;;;;21.02;44.32;95914.91;10442240;28;2848;-70
2024/03/19 09:23:52;;;;;;;;;;;;;;;21.01;45.07;95913.31;10455356;28;2890;-70
2024/03/19 09:28:52;;;;;;;;;;;;;;;21.00;45.28;95920.44;10457972;28;2921;-70
2024/03/19 09:33:52;;;;;;;;;;;;;;;21.03;44.84;95927.03;10457380;28;2816;-70
2024/03/19 09:38:53;;;;;;;;;;;;;;;21.06;45.00;95929.16;10492295;28;2853;-69
2024/03/19 09:43:53;;;;;;;;;;;;;;;21.14;44.62;95927.78;10460268;28;2835;-69
2024/03/19 09:48:53;;;;;;;;;;;;;;;21.11;44.29;95926.47;10473180;28;2785;-69
2024/03/19 09:53:54;;;;;;;;;;;;;;;21.11;45.30;95918.56;10458991;28;2859;-70
2024/03/19 09:58:54;;;;;;;;;;;;;;;21.15;44.46;95929.34;10489896;28;2793;-68
2024/03/19 10:03:54;;;;;;;;;;;;;;;21.13;44.69;95931.47;10437394;28;2754;-68
2024/03/19 10:08:54;;;;;;;;;;;;;;;21.12;45.03;95929.91;10449840;28;2920;-70
2024/03/19 10:13:55;;;;;;;;;;;;;;;21.14;44.71;95922.50;10438451;28;2850;-69
2024/03/19 10:18:55;;;;;;;;;;;;;;;21.13;44.74;95921.72;10438595;28;2784;-69
2024/03/19 10:23:55;;;;;;;;;;;;;;;21.13;44.35;95918.28;10434076;28;2776;-69
2024/03/19 10:29:00;;;;;;;;;;;;;;;21.13;44.68;95905.09;10456293;28;2975;-69
2024/03/19 10:34:00;;;;;;;;;;;;;;;21.12;44.49;95904.34;10489959;28;2988;-69
2024/03/19 10:39:00;;;;;;;;;;;;;;;21.16;44.97;95901.94;10459126;28;2663;-69
2024/03/19 10:44:01;;;;;;;;;;;;;;;21.16;44.87;95900.09;10472683;28;2826;-69
2024/03/19 10:49:01;;;;;;;;;;;;;;;21.16;44.22;95907.19;10457664;28;2816;-70
2024/03/19 10:54:01;;;;;;;;;;;;;;;21.19;43.50;95898.72;10474456;28;2741;-69
2024/03/19 10:59:01;;;;;;;;;;;;;;;21.18;43.82;95897.19;10454594;28;2883;-69
2024/03/19 11:04:02;;;;;;;;;;;;;;;21.18;43.99;95892.69;10454666;28;2910;-69
2024/03/19 11:09:02;;;;;;;;;;;;;;;21.19;44.51;95893.47;10454320;28;2828;-69
2024/03/19 11:14:05;;;;;;;;;;;;;;;21.18;44.72;95887.41;10452957;28;2961;-69
2024/03/19 11:19:18;;;;;;;;;;;;;;;21.16;45.27;95891.38;10457449;28;2735;-69
2024/03/19 11:24:28;;;;;;;;;;;;;;;21.13;45.75;95890.06;10454338;28;2794;-69
2024/03/19 11:29:30;;;;;;;;;;;;;;;21.11;45.53;95899.31;10468160;28;2827;-69
2024/03/19 11:34:31;;;;;;;;;;;;;;;21.12;45.44;95893.78;10441639;28;2839;-69
2024/03/19 11:39:32;;;;;;;;;;;;;;;21.10;45.36;95887.22;10456678;28;2903;-69
2024/03/19 11:44:32;;;;;;;;;;;;;;;21.11;45.35;95880.88;10484367;28;2821;-69
2024/03/19 11:49:33;;;;;;;;;;;;;;;21.10;45.74;95874.81;10458586;28;2794;-69
2024/03/19 11:54:36;;;;;;;;;;;;;;;21.12;45.50;95885.09;10471079;28;2847;-69
2024/03/19 11:59:37;;;;;;;;;;;;;;;21.12;45.25;95877.19;10454042;28;2792;-68
2024/03/19 12:04:38;;;;;;;;;;;;;;;21.12;45.85;95877.97;10455821;28;2753;-68
2024/03/19 12:09:38;;;;;;;;;;;;;;;21.13;45.64;95868.19;10460593;28;2806;-68
2024/03/19 12:14:38;;;;;;;;;;;;;;;21.15;46.03;95866.88;10459166;28;2775;-68
2024/03/19 12:19:39;;;;;;;;;;;;;;;21.16;46.15;95851.84;10462565;28;2760;-68
2024/03/19 12:24:39;;;;;;;;;;;;;;;21.16;45.91;95852.63;10459151;28;2731;-69
2024/03/19 12:29:39;;;;;;;;;;;;;;;21.17;46.49;95854.19;10461432;28;2968;-69
2024/03/19 12:39:46;;;;;;;;;;;;;;;21.16;46.47;95844.72;10459287;28;2783;-69
2024/03/19 12:44:50;;;;;;;;;;;;;;;21.14;46.37;95849.50;10461498;28;2840;-69
2024/03/19 12:49:50;;;;;;;;;;;;;;;21.14;46.00;95848.69;10464244;28;2853;-69
2024/03/19 12:54:50;;;;;;;;;;;;;;;21.11;46.03;95847.38;10461344;28;2840;-69
2024/03/19 12:59:50;;;;;;;;;;;;;;;21.11;46.46;95850.03;10462783;28;2819;-68
2024/03/19 13:04:51;;;;;;;;;;;;;;;21.10;46.15;95842.41;10460822;28;2873;-69
2024/03/19 13:09:51;;;;;;;;;;;;;;;21.11;46.17;95838.69;10463893;28;2728;-69
2024/03/19 13:14:52;;;;;;;;;;;;;;;21.09;46.04;95833.69;10460012;28;2977;-69
2024/03/19 13:19:52;;;;;;;;;;;;;;;21.06;46.35;95842.94;10461046;28;2928;-69
2024/03/19 13:24:52;;;;;;;;;;;;;;;21.05;46.24;95841.38;10491957;28;2844;-69
2024/03/19 13:29:52;;;;;;;;;;;;;;;21.05;46.56;95838.75;10460042;28;2862;-68
2024/03/19 13:34:54;;;;;;;;;;;;;;;21.04;46.42;95831.88;10457884;28;2861;-69
2024/03/19 13:39:55;;;;;;;;;;;;;;;21.03;46.37;95827.69;10475123;28;2846;-68
2024/03/19 13:44:55;;;;;;;;;;;;;;;21.02;46.60;95826.09;10458722;28;2792;-69
2024/03/19 13:49:55;;;;;;;;;;;;;;;20.99;46.38;95825.84;10463638;28;2793;-69
2024/03/19 13:54:58;;;;;;;;;;;;;;;20.99;46.39;95825.84;10456962;28;2778;-68
2024/03/19 13:59:59;;;;;;;;;;;;;;;20.96;46.67;95827.16;10456270;28;2887;-69
2024/03/19 14:04:59;;;;;;;;;;;;;;;20.98;46.39;95818.97;10444141;28;2946;-67
2024/03/19 14:10:02;;;;;;;;;;;;;;;20.96;46.18;95821.91;10454893;28;2989;-69
2024/03/19 14:15:02;;;;;;;;;;;;;;;20.96;46.66;95823.72;10459809;28;2836;-68
2024/03/19 14:20:04;;;;;;;;;;;;;;;20.94;46.50;95820.59;10457940;28;2795;-68
2024/03/19 14:25:04;;;;;;;;;;;;;;;20.93;46.57;95822.47;10461509;28;2896;-68
2024/03/19 14:30:05;;;;;;;;;;;;;;;20.91;46.44;95835.13;10456773;28;2788;-68
2024/03/19 14:35:06;;;;;;;;;;;;;;;20.91;46.52;95835.13;10455519;28;2843;-67
2024/03/19 14:40:06;;;;;;;;;;;;;;;20.93;46.70;95845.38;10463511;28;2693;-68
2024/03/19 14:45:07;;;;;;;;;;;;;;;20.93;46.59;95845.38;10454069;28;2892;-68
2024/03/19 14:50:09;;;;;;;;;;;;;;;20.95;46.69;95844.06;10458342;28;2810;-68
2024/03/19 14:55:10;;;;;;;;;;;;;;;20.97;46.39;95841.13;10458632;28;2885;-68
2024/03/19 15:00:13;;;;;;;;;;;;;;;20.98;46.70;95845.31;10455809;28;2837;-67
2024/03/19 15:05:13;;;;;;;;;;;;;;;21.02;46.22;95849.81;10439192;28;2783;-67
2024/03/19 15:10:13;;;;;;;;;;;;;;;21.04;46.40;95845.06;10457205;28;2898;-68
2024/03/19 15:15:13;;;;;;;;;;;;;;;21.08;46.10;95836.63;10452635;28;2853;-67
2024/03/19 15:20:14;;;;;;;;;;;;;;;21.10;45.87;95843.19;10451290;28;2826;-68
2024/03/19 15:25:14;;;;;;;;;;;;;;;21.12;46.19;95845.56;10472790;28;2752;-68
2024/03/19 15:30:14;;;;;;;;;;;;;;;21.15;46.10;95844.97;10455842;28;2833;-67
2024/03/19 15:35:15;;;;;;;;;;;;;;;21.16;45.90;95847.38;10452971;28;2727;-67
2024/03/19 15:40:15;;;;;;;;;;;;;;;21.18;45.50;95844.44;10476514;28;2824;-67
2024/03/19 15:45:15;;;;;;;;;;;;;;;21.20;45.58;95847.59;10461036;28;2982;-67
2024/03/19 15:50:16;;;;;;;;;;;;;;;21.20;45.64;95853.66;10466092;28;2826;-67
2024/03/19 15:55:16;;;;;;;;;;;;;;;21.22;45.50;95859.44;10462351;28;2767;-67
2024/03/19 16:00:17;;;;;;;;;;;;;;;21.25;45.68;95856.25;10456417;28;2887;-67
2024/03/19 16:05:17;;;;;;;;;;;;;;;21.26;45.27;95859.69;10461385;28;2975;-67
2024/03/19 16:10:19;;;;;;;;;;;;;;;21.28;45.35;95862.81;10460083;28;2855;-66
2024/03/19 16:15:23;;;;;;;;;;;;;;;21.29;45.62;95872.31;10447109;28;2784;-67
2024/03/19 16:20:23;;;;;;;;;;;;;;;21.30;45.62;95868.63;10458161;28;2776;-66
2024/03/19 16:25:23;;;;;;;;;;;;;;;21.26;45.31;95873.66;10461236;28;2836;-66
2024/03/19 16:30:25;;;;;;;;;;;;;;;21.26;45.72;95880.78;10459037;28;2781;-67
2024/03/19 16:35:27;;;;;;;;;;;;;;;21.24;45.65;95882.91;10491355;28;2821;-69
2024/03/19 16:40:33;;;;;;;;;;;;;;;21.23;45.98;95889.22;10457261;28;2916;-75
2024/03/19 16:45:33;;;;;;;;;;;;;;;21.22;45.59;95893.72;10456676;28;2993;-76
2024/03/19 16:50:34;;;;;;;;;;;;;;;21.20;45.78;95900.31;10458789;28;2823;-75
2024/03/19 16:55:34;;;;;;;;;;;;;;;21.19;45.59;95910.06;10463456;28;2842;-76
2024/03/19 17:00:35;;;;;;;;;;;;;;;21.19;45.46;95909.28;10455125;28;2882;-75
2024/03/19 17:05:35;;;;;;;;;;;;;;;21.17;45.47;95917.47;10437934;28;2815;-75
2024/03/19 17:10:36;;;;;;;;;;;;;;;21.17;45.42;95916.66;10473854;28;2776;-75
2024/03/19 17:15:36;;;;;;;;;;;;;;;21.19;45.61;95919.81;10453480;28;2760;-75
2024/03/19 17:20:37;;;;;;;;;;;;;;;21.16;45.60;95918.53;10472831;28;2795;-75
2024/03/19 17:25:39;;;;;;;;;;;;;;;21.17;45.34;95919.31;10435169;28;2727;-76
2024/03/19 17:30:40;;;;;;;;;;;;;;;21.16;45.59;95928.28;10456956;28;2783;-75
2024/03/19 17:35:43;;;;;;;;;;;;;;;21.15;45.43;95926.69;10455157;28;2702;-75
2024/03/19 17:40:45;;;;;;;;;;;;;;;21.12;45.50;95919.34;10455185;28;3002;-71
2024/03/19 17:45:45;;;;;;;;;;;;;;;21.12;45.48;95920.16;10457208;28;2712;-70
2024/03/19 17:50:46;;;;;;;;;;;;;;;21.08;45.82;95927.78;10459814;28;2812;-70
2024/03/19 17:55:50;;;;;;;;;;;;;;;21.10;45.84;95930.19;10454182;28;2842;-69
2024/03/19 18:00:51;;;;;;;;;;;;;;;21.11;45.72;95934.38;10451171;28;2848;-70
2024/03/19 18:05:51;;;;;;;;;;;;;;;21.15;45.77;95937.25;10463405;28;2770;-70
2024/03/19 18:10:51;;;;;;;;;;;;;;;21.18;45.52;95944.63;10453279;28;2844;-70
2024/03/19 18:15:52;;;;;;;;;;;;;;;21.20;45.74;95943.28;10451423;28;2850;-69
2024/03/19 18:20:56;;;;;;;;;;;;;;;21.25;45.70;95951.16;10455060;28;2851;-71
2024/03/19 18:25:57;;;;;;;;;;;;;;;21.31;46.25;95949.31;10454267;28;2706;-72
2024/03/19 18:30:57;;;;;;;;;;;;;;;21.34;46.59;95949.53;10455100;28;2709;-75
2024/03/19 18:35:58;;;;;;;;;;;;;;;21.36;46.49;95947.41;10485892;28;2739;-70
2024/03/19 18:40:58;;;;;;;;;;;;;;;21.38;46.38;95949.78;10453680;28;2800;-69
2024/03/19 18:45:58;;;;;;;;;;;;;;;21.40;46.52;95955.56;10451222;28;2834;-71
2024/03/19 18:50:59;;;;;;;;;;;;;;;21.41;46.35;95959.78;10488449;28;2858;-70
2024/03/19 18:55:59;;;;;;;;;;;;;;;21.43;46.40;95965.56;10449640;28;2831;-72
2024/03/19 19:01:00;;;;;;;;;;;;;;;21.42;45.74;95972.69;10454030;28;2844;-71
2024/03/19 19:06:00;;;;;;;;;;;;;;;21.42;45.61;95972.69;10450976;28;2778;-71
2024/03/19 19:11:01;;;;;;;;;;;;;;;21.41;45.51;95971.09;10450307;28;2845;-71
2024/03/19 19:16:02;;;;;;;;;;;;;;;21.39;45.44;95972.47;10460945;28;2775;-71
2024/03/19 19:21:02;;;;;;;;;;;;;;;21.37;45.48;95974.56;10474824;28;2738;-71
2024/03/19 19:26:03;;;;;;;;;;;;;;;21.37;44.99;95979.84;10459782;28;2821;-71
2024/03/19 19:31:08;;;;;;;;;;;;;;;21.37;44.97;95977.97;10460541;28;2744;-71
2024/03/19 19:36:09;;;;;;;;;;;;;;;21.41;44.24;95983.53;10458569;28;2978;-72
2024/03/19 19:41:12;;;;;;;;;;;;;;;21.42;44.31;95972.69;10446287;28;2847;-69
2024/03/19 19:46:12;;;;;;;;;;;;;;;21.40;44.08;95979.28;10462282;28;2806;-72
2024/03/19 19:51:13;;;;;;;;;;;;;;;21.45;43.54;95974.75;10466199;28;2723;-72
2024/03/19 19:56:13;;;;;;;;;;;;;;;21.48;43.81;95981.34;10460973;28;2844;-71
2024/03/19 20:01:14;;;;;;;;;;;;;;;21.49;43.71;95980.31;10458593;28;2854;-72
2024/03/19 20:06:14;;;;;;;;;;;;;;;21.47;43.98;95980.59;10454924;28;2820;-71
2024/03/19 20:11:14;;;;;;;;;;;;;;;21.56;43.35;95973.66;10445878;28;2848;-70
2024/03/19 20:16:17;;;;;;;;;;;;;;;21.56;43.13;95973.66;10459995;28;2791;-70
2024/03/19 20:21:17;;;;;;;;;;;;;;;21.59;43.17;95977.59;10461252;28;2926;-71
2024/03/19 20:26:17;;;;;;;;;;;;;;;21.67;42.44;95969.09;10493664;28;2711;-71
2024/03/19 20:31:19;;;;;;;;;;;;;;;21.68;42.49;95968.81;10460891;28;2865;-72
2024/03/19 20:36:21;;;;;;;;;;;;;;;21.65;42.87;95966.75;10458257;28;2783;-72
2024/03/19 20:41:22;;;;;;;;;;;;;;;21.65;42.43;95969.38;10459331;28;2768;-71
2024/03/19 20:46:22;;;;;;;;;;;;;;;21.64;42.18;95961.72;10457962;28;2849;-71
2024/03/19 20:51:22;;;;;;;;;;;;;;;21.64;42.59;95961.72;10464167;28;2733;-71
2024/03/19 20:56:22;;;;;;;;;;;;;;;21.63;42.87;95958.31;10459650;28;2857;-70
2024/03/19 21:01:23;;;;;;;;;;;;;;;21.63;42.62;95960.16;10458461;28;2805;-66
2024/03/19 21:06:23;;;;;;;;;;;;;;;21.54;42.36;95949.41;10460789;28;2853;-66
2024/03/19 21:11:24;;;;;;;;;;;;;;;21.43;42.77;95947.13;10463641;28;2831;-66
2024/03/19 21:16:24;;;;;;;;;;;;;;;21.36;43.43;95941.34;10454499;28;3000;-66
2024/03/19 21:21:24;;;;;;;;;;;;;;;21.29;43.67;95941.66;10456568;28;2967;-72
2024/03/19 21:26:24;;;;;;;;;;;;;;;21.26;45.28;95946.69;10492305;28;2809;-72
2024/03/19 21:31:25;;;;;;;;;;;;;;;21.23;45.47;95945.38;10459686;28;2711;-73
2024/03/19 21:36:25;;;;;;;;;;;;;;;21.22;45.82;95943.03;10458884;28;2931;-73
2024/03/19 21:41:25;;;;;;;;;;;;;;;21.25;42.12;95940.63;10459967;28;2954;-72
2024/03/19 21:46:26;;;;;;;;;;;;;;;21.13;44.99;95942.00;10472937;28;2880;-74
2024/03/19 21:51:26;;;;;;;;;;;;;;;21.10;45.54;95934.66;10496231;27;2871;-72
2024/03/19 21:56:26;;;;;;;;;;;;;;;21.05;45.40;95946.81;10458746;28;2861;-74
2024/03/19 22:01:29;;;;;;;;;;;;;;;21.02;45.33;95944.69;10460568;28;2823;-73
2024/03/19 22:06:29;;;;;;;;;;;;;;;21.00;45.55;95951.25;10475009;28;2806;-74
2024/03/19 22:11:29;;;;;;;;;;;;;;;20.95;45.45;95946.03;10457286;28;2729;-73
2024/03/19 22:16:29;;;;;;;;;;;;;;;20.94;45.46;95955.78;10456291;28;2864;-73
2024/03/19 22:21:30;;;;;;;;;;;;;;;20.92;45.49;95949.97;10469428;28;2839;-74
2024/03/19 22:26:30;;;;;;;;;;;;;;;20.90;45.42;95943.41;10453518;28;2782;-73
2024/03/19 22:31:32;;;;;;;;;;;;;;;20.88;45.35;95941.03;10456828;28;2882;-74
2024/03/19 22:36:32;;;;;;;;;;;;;;;20.86;45.33;95943.16;10459001;28;2693;-73
2024/03/19 22:41:32;;;;;;;;;;;;;;;20.84;45.22;95945.28;10457742;28;2594;-74
2024/03/19 22:46:33;;;;;;;;;;;;;;;20.80;45.42;95944.25;10454757;28;2930;-74
2024/03/19 22:51:33;;;;;;;;;;;;;;;20.79;45.32;95942.66;10457929;28;2834;-74
2024/03/19 22:56:34;;;;;;;;;;;;;;;20.77;45.25;95938.75;10454641;28;2760;-73
2024/03/19 23:01:35;;;;;;;;;;;;;;;20.74;45.25;95945.31;10428292;28;2742;-73
2024/03/19 23:06:35;;;;;;;;;;;;;;;20.73;45.11;95933.19;10456178;28;2724;-74
2024/03/19 23:11:39;;;;;;;;;;;;;;;20.71;45.08;95937.19;10434597;28;2709;-74
2024/03/19 23:16:39;;;;;;;;;;;;;;;20.69;45.09;95937.44;10458095;28;2686;-73
2024/03/19 23:21:39;;;;;;;;;;;;;;;20.68;45.21;95941.13;10471342;28;2886;-73
2024/03/19 23:26:40;;;;;;;;;;;;;;;20.67;45.12;95934.28;10456991;28;2785;-74
2024/03/19 23:31:43;;;;;;;;;;;;;;;20.65;45.17;95935.63;10459128;28;2803;-75
2024/03/19 23:36:43;;;;;;;;;;;;;;;20.63;44.92;95929.84;10472828;28;2811;-75
2024/03/19 23:41:47;;;;;;;;;;;;;;;20.62;44.92;95928.25;10457778;28;2862;-75
2024/03/19 23:46:47;;;;;;;;;;;;;;;20.61;44.79;95926.69;10453509;28;2590;-74
2024/03/19 23:51:51;;;;;;;;;;;;;;;20.59;45.03;95931.41;10437298;28;2792;-76
2024/03/19 23:56:51;;;;;;;;;;;;;;;20.57;44.71;95925.63;10455535;28;2751;-75
